sensor_id;sensor_type;location;lat;lon;timestamp;P1;durP1;ratioP1;P2;durP2;ratioP2
53271;SDS011;39160;48.580;7.756;2023-04-01T00:02:20;1.77;;;0.60;;
53271;SDS011;39160;48.580;7.756;2023-04-01T00:07:11;2.28;;;1.27;;
53271;SDS011;39160;48.580;7.756;2023-04-01T00:12:02;1.55;;;0.95;;
53271;SDS011;39160;48.580;7.756;2023-04-01T00:16:53;1.63;;;0.40;;
53271;SDS011;39160;48.580;7.756;2023-04-01T00:21:43;1.45;;;0.40;;
53271;SDS011;39160;48.580;7.756;2023-04-01T00:26:35;0.50;;;0.38;;
53271;SDS011;39160;48.580;7.756;2023-04-01T00:31:26;1.77;;;0.43;;
53271;SDS011;39160;48.580;7.756;2023-04-01T00:36:18;3.17;;;0.45;;
53271;SDS011;39160;48.580;7.756;2023-04-01T00:41:11;0.88;;;0.57;;
53271;SDS011;39160;48.580;7.756;2023-04-01T00:46:04;1.38;;;0.28;;
53271;SDS011;39160;48.580;7.756;2023-04-01T00:51:06;0.20;;;0.10;;
53271;SDS011;39160;48.580;7.756;2023-04-01T00:56:04;1.48;;;0.40;;
53271;SDS011;39160;48.580;7.756;2023-04-01T01:01:03;0.47;;;0.10;;
53271;SDS011;39160;48.580;7.756;2023-04-01T01:11:00;0.50;;;0.20;;
53271;SDS011;39160;48.580;7.756;2023-04-01T01:15:59;0.17;;;0.17;;
53271;SDS011;39160;48.580;7.756;2023-04-01T01:36:17;0.13;;;0.13;;
53271;SDS011;39160;48.580;7.756;2023-04-01T01:41:11;0.15;;;0.08;;
53271;SDS011;39160;48.580;7.756;2023-04-01T01:46:08;0.00;;;0.00;;
53271;SDS011;39160;48.580;7.756;2023-04-01T01:51:02;0.30;;;0.20;;
53271;SDS011;39160;48.580;7.756;2023-04-01T01:55:55;0.15;;;0.10;;
53271;SDS011;39160;48.580;7.756;2023-04-01T02:00:48;1.52;;;0.28;;
53271;SDS011;39160;48.580;7.756;2023-04-01T02:05:56;0.43;;;0.15;;
53271;SDS011;39160;48.580;7.756;2023-04-01T02:10:53;0.30;;;0.30;;
53271;SDS011;39160;48.580;7.756;2023-04-01T02:15:47;0.10;;;0.10;;
53271;SDS011;39160;48.580;7.756;2023-04-01T02:20:40;0.10;;;0.10;;
53271;SDS011;39160;48.580;7.756;2023-04-01T02:25:33;0.28;;;0.10;;
53271;SDS011;39160;48.580;7.756;2023-04-01T02:30:29;0.20;;;0.10;;
53271;SDS011;39160;48.580;7.756;2023-04-01T02:35:23;0.22;;;0.20;;
53271;SDS011;39160;48.580;7.756;2023-04-01T02:40:16;0.65;;;0.05;;
53271;SDS011;39160;48.580;7.756;2023-04-01T02:45:07;0.17;;;0.17;;
53271;SDS011;39160;48.580;7.756;2023-04-01T02:49:58;0.28;;;0.15;;
53271;SDS011;39160;48.580;7.756;2023-04-01T02:54:49;0.85;;;0.20;;
53271;SDS011;39160;48.580;7.756;2023-04-01T02:59:40;1.45;;;0.40;;
53271;SDS011;39160;48.580;7.756;2023-04-01T03:04:30;0.28;;;0.20;;
53271;SDS011;39160;48.580;7.756;2023-04-01T03:09:21;1.13;;;0.25;;
53271;SDS011;39160;48.580;7.756;2023-04-01T03:14:11;1.45;;;0.30;;
53271;SDS011;39160;48.580;7.756;2023-04-01T03:19:02;2.88;;;0.60;;
53271;SDS011;39160;48.580;7.756;2023-04-01T03:23:53;0.65;;;0.40;;
53271;SDS011;39160;48.580;7.756;2023-04-01T03:28:43;0.75;;;0.30;;
53271;SDS011;39160;48.580;7.756;2023-04-01T03:33:34;1.20;;;0.55;;
53271;SDS011;39160;48.580;7.756;2023-04-01T03:38:25;1.58;;;0.40;;
53271;SDS011;39160;48.580;7.756;2023-04-01T03:43:15;3.72;;;1.40;;
53271;SDS011;39160;48.580;7.756;2023-04-01T03:48:06;4.80;;;0.40;;
53271;SDS011;39160;48.580;7.756;2023-04-01T03:52:57;0.73;;;0.57;;
53271;SDS011;39160;48.580;7.756;2023-04-01T03:57:48;2.60;;;0.75;;
53271;SDS011;39160;48.580;7.756;2023-04-01T04:02:38;1.08;;;0.63;;
53271;SDS011;39160;48.580;7.756;2023-04-01T04:07:29;2.97;;;0.98;;
53271;SDS011;39160;48.580;7.756;2023-04-01T04:12:19;1.77;;;0.65;;
53271;SDS011;39160;48.580;7.756;2023-04-01T04:17:10;4.20;;;0.68;;
53271;SDS011;39160;48.580;7.756;2023-04-01T04:22:06;2.10;;;0.50;;
53271;SDS011;39160;48.580;7.756;2023-04-01T04:26:56;0.77;;;0.38;;
53271;SDS011;39160;48.580;7.756;2023-04-01T04:31:47;4.13;;;0.40;;
53271;SDS011;39160;48.580;7.756;2023-04-01T04:36:37;0.65;;;0.20;;
53271;SDS011;39160;48.580;7.756;2023-04-01T04:41:28;0.25;;;0.08;;
53271;SDS011;39160;48.580;7.756;2023-04-01T04:46:19;1.00;;;0.20;;
53271;SDS011;39160;48.580;7.756;2023-04-01T04:51:17;2.45;;;0.40;;
53271;SDS011;39160;48.580;7.756;2023-04-01T04:56:09;0.98;;;0.32;;
53271;SDS011;39160;48.580;7.756;2023-04-01T05:01:05;4.50;;;0.38;;
53271;SDS011;39160;48.580;7.756;2023-04-01T05:06:00;2.50;;;0.40;;
53271;SDS011;39160;48.580;7.756;2023-04-01T05:10:51;2.35;;;0.43;;
53271;SDS011;39160;48.580;7.756;2023-04-01T05:15:41;3.65;;;0.43;;
53271;SDS011;39160;48.580;7.756;2023-04-01T05:20:32;0.50;;;0.50;;
53271;SDS011;39160;48.580;7.756;2023-04-01T05:25:23;2.17;;;0.68;;
53271;SDS011;39160;48.580;7.756;2023-04-01T05:30:14;3.60;;;0.60;;
53271;SDS011;39160;48.580;7.756;2023-04-01T05:35:05;0.88;;;0.28;;
53271;SDS011;39160;48.580;7.756;2023-04-01T05:39:56;0.25;;;0.20;;
53271;SDS011;39160;48.580;7.756;2023-04-01T05:44:48;0.10;;;0.10;;
53271;SDS011;39160;48.580;7.756;2023-04-01T05:49:39;3.13;;;0.47;;
53271;SDS011;39160;48.580;7.756;2023-04-01T05:54:29;0.30;;;0.20;;
53271;SDS011;39160;48.580;7.756;2023-04-01T05:59:20;0.30;;;0.20;;
53271;SDS011;39160;48.580;7.756;2023-04-01T06:04:14;0.47;;;0.20;;
53271;SDS011;39160;48.580;7.756;2023-04-01T06:09:10;2.90;;;0.35;;
53271;SDS011;39160;48.580;7.756;2023-04-01T06:14:11;3.40;;;0.47;;
53271;SDS011;39160;48.580;7.756;2023-04-01T06:29:38;1.58;;;0.88;;
53271;SDS011;39160;48.580;7.756;2023-04-01T06:34:49;1.30;;;0.35;;
53271;SDS011;39160;48.580;7.756;2023-04-01T06:54:47;2.33;;;0.50;;
53271;SDS011;39160;48.580;7.756;2023-04-01T06:59:43;2.08;;;0.70;;
53271;SDS011;39160;48.580;7.756;2023-04-01T07:04:35;0.45;;;0.38;;
53271;SDS011;39160;48.580;7.756;2023-04-01T07:14:31;2.03;;;0.32;;
53271;SDS011;39160;48.580;7.756;2023-04-01T07:19:47;2.37;;;0.70;;
53271;SDS011;39160;48.580;7.756;2023-04-01T07:24:40;0.40;;;0.30;;
53271;SDS011;39160;48.580;7.756;2023-04-01T07:29:34;1.25;;;0.50;;
53271;SDS011;39160;48.580;7.756;2023-04-01T07:34:28;2.92;;;0.60;;
53271;SDS011;39160;48.580;7.756;2023-04-01T07:39:49;4.22;;;0.82;;
53271;SDS011;39160;48.580;7.756;2023-04-01T07:55:57;0.70;;;0.40;;
53271;SDS011;39160;48.580;7.756;2023-04-01T08:00:27;0.63;;;0.40;;
53271;SDS011;39160;48.580;7.756;2023-04-01T08:05:28;0.95;;;0.47;;
53271;SDS011;39160;48.580;7.756;2023-04-01T08:10:34;2.75;;;0.63;;
53271;SDS011;39160;48.580;7.756;2023-04-01T08:15:27;0.45;;;0.35;;
53271;SDS011;39160;48.580;7.756;2023-04-01T08:25:30;1.60;;;0.70;;
53271;SDS011;39160;48.580;7.756;2023-04-01T08:30:25;1.00;;;0.40;;
53271;SDS011;39160;48.580;7.756;2023-04-01T08:35:34;0.75;;;0.50;;
53271;SDS011;39160;48.580;7.756;2023-04-01T08:56:14;2.55;;;0.73;;
53271;SDS011;39160;48.580;7.756;2023-04-01T09:16:27;0.50;;;0.40;;
53271;SDS011;39160;48.580;7.756;2023-04-01T09:22:02;0.95;;;0.60;;
53271;SDS011;39160;48.580;7.756;2023-04-01T09:43:16;1.48;;;0.40;;
53271;SDS011;39160;48.580;7.756;2023-04-01T09:48:29;1.08;;;0.40;;
53271;SDS011;39160;48.580;7.756;2023-04-01T09:53:46;0.45;;;0.30;;
53271;SDS011;39160;48.580;7.756;2023-04-01T10:09:10;0.40;;;0.30;;
53271;SDS011;39160;48.580;7.756;2023-04-01T10:14:37;0.85;;;0.40;;
53271;SDS011;39160;48.580;7.756;2023-04-01T10:19:50;1.42;;;0.65;;
53271;SDS011;39160;48.580;7.756;2023-04-01T10:29:41;1.55;;;0.60;;
53271;SDS011;39160;48.580;7.756;2023-04-01T10:39:55;1.55;;;0.88;;
53271;SDS011;39160;48.580;7.756;2023-04-01T10:55:38;0.82;;;0.60;;
53271;SDS011;39160;48.580;7.756;2023-04-01T11:16:37;0.60;;;0.40;;
53271;SDS011;39160;48.580;7.756;2023-04-01T11:27:08;1.08;;;0.40;;
53271;SDS011;39160;48.580;7.756;2023-04-01T11:37:42;0.63;;;0.50;;
53271;SDS011;39160;48.580;7.756;2023-04-01T11:58:36;1.23;;;0.47;;
53271;SDS011;39160;48.580;7.756;2023-04-01T12:03:46;2.55;;;0.68;;
53271;SDS011;39160;48.580;7.756;2023-04-01T12:08:55;1.20;;;0.35;;
53271;SDS011;39160;48.580;7.756;2023-04-01T12:14:08;0.25;;;0.25;;
53271;SDS011;39160;48.580;7.756;2023-04-01T12:34:49;1.55;;;0.35;;
53271;SDS011;39160;48.580;7.756;2023-04-01T12:45:35;0.65;;;0.45;;
53271;SDS011;39160;48.580;7.756;2023-04-01T12:55:51;0.45;;;0.30;;
53271;SDS011;39160;48.580;7.756;2023-04-01T13:11:20;0.77;;;0.35;;
53271;SDS011;39160;48.580;7.756;2023-04-01T13:16:35;1.23;;;0.30;;
53271;SDS011;39160;48.580;7.756;2023-04-01T13:31:53;1.33;;;0.50;;
53271;SDS011;39160;48.580;7.756;2023-04-01T13:57:49;0.22;;;0.20;;
53271;SDS011;39160;48.580;7.756;2023-04-01T14:03:09;1.85;;;0.35;;
53271;SDS011;39160;48.580;7.756;2023-04-01T14:13:23;0.28;;;0.28;;
53271;SDS011;39160;48.580;7.756;2023-04-01T14:34:15;0.45;;;0.30;;
53271;SDS011;39160;48.580;7.756;2023-04-01T14:44:27;2.63;;;0.55;;
53271;SDS011;39160;48.580;7.756;2023-04-01T14:49:46;0.55;;;0.50;;
53271;SDS011;39160;48.580;7.756;2023-04-01T14:54:44;0.88;;;0.82;;
53271;SDS011;39160;48.580;7.756;2023-04-01T14:59:39;1.45;;;0.55;;
53271;SDS011;39160;48.580;7.756;2023-04-01T15:25:42;1.97;;;0.47;;
53271;SDS011;39160;48.580;7.756;2023-04-01T15:46:21;1.88;;;0.77;;
53271;SDS011;39160;48.580;7.756;2023-04-01T15:56:36;1.80;;;0.93;;
53271;SDS011;39160;48.580;7.756;2023-04-01T16:12:18;1.40;;;0.90;;
53271;SDS011;39160;48.580;7.756;2023-04-01T16:42:54;1.00;;;0.50;;
53271;SDS011;39160;48.580;7.756;2023-04-01T16:53:09;1.73;;;1.08;;
53271;SDS011;39160;48.580;7.756;2023-04-01T16:58:09;1.63;;;0.40;;
53271;SDS011;39160;48.580;7.756;2023-04-01T17:03:08;2.58;;;0.70;;
53271;SDS011;39160;48.580;7.756;2023-04-01T17:08:17;1.58;;;0.75;;
53271;SDS011;39160;48.580;7.756;2023-04-01T17:13:32;2.10;;;0.85;;
53271;SDS011;39160;48.580;7.756;2023-04-01T17:24:00;3.25;;;1.20;;
53271;SDS011;39160;48.580;7.756;2023-04-01T17:29:15;3.80;;;1.00;;
53271;SDS011;39160;48.580;7.756;2023-04-01T17:39:57;2.58;;;1.25;;
53271;SDS011;39160;48.580;7.756;2023-04-01T18:11:25;0.88;;;0.70;;
53271;SDS011;39160;48.580;7.756;2023-04-01T18:21:33;2.15;;;1.20;;
53271;SDS011;39160;48.580;7.756;2023-04-01T18:26:35;4.55;;;1.77;;
53271;SDS011;39160;48.580;7.756;2023-04-01T18:31:32;1.30;;;1.05;;
53271;SDS011;39160;48.580;7.756;2023-04-01T18:36:38;1.88;;;1.05;;
53271;SDS011;39160;48.580;7.756;2023-04-01T18:41:34;3.92;;;1.67;;
53271;SDS011;39160;48.580;7.756;2023-04-01T18:46:38;1.70;;;1.42;;
53271;SDS011;39160;48.580;7.756;2023-04-01T18:51:35;3.22;;;1.52;;
53271;SDS011;39160;48.580;7.756;2023-04-01T18:56:41;3.70;;;1.90;;
53271;SDS011;39160;48.580;7.756;2023-04-01T19:01:36;3.08;;;1.70;;
53271;SDS011;39160;48.580;7.756;2023-04-01T19:11:38;3.58;;;2.03;;
53271;SDS011;39160;48.580;7.756;2023-04-01T19:32:16;2.97;;;0.90;;
53271;SDS011;39160;48.580;7.756;2023-04-01T19:52:42;5.60;;;1.92;;
53271;SDS011;39160;48.580;7.756;2023-04-01T19:57:40;1.65;;;0.90;;
53271;SDS011;39160;48.580;7.756;2023-04-01T20:02:50;1.58;;;1.17;;
53271;SDS011;39160;48.580;7.756;2023-04-01T20:07:52;3.35;;;1.52;;
53271;SDS011;39160;48.580;7.756;2023-04-01T20:12:51;3.90;;;1.65;;
53271;SDS011;39160;48.580;7.756;2023-04-01T20:17:51;2.60;;;1.15;;
53271;SDS011;39160;48.580;7.756;2023-04-01T20:27:36;2.13;;;1.23;;
53271;SDS011;39160;48.580;7.756;2023-04-01T20:53:19;1.88;;;0.80;;
53271;SDS011;39160;48.580;7.756;2023-04-01T20:58:28;0.90;;;0.70;;
53271;SDS011;39160;48.580;7.756;2023-04-01T21:29:09;1.48;;;0.60;;
53271;SDS011;39160;48.580;7.756;2023-04-01T21:44:43;2.65;;;0.85;;
53271;SDS011;39160;48.580;7.756;2023-04-01T21:49:49;1.17;;;0.80;;
53271;SDS011;39160;48.580;7.756;2023-04-01T22:00:19;2.08;;;0.75;;
53271;SDS011;39160;48.580;7.756;2023-04-01T22:05:21;0.88;;;0.57;;
53271;SDS011;39160;48.580;7.756;2023-04-01T22:10:21;0.85;;;0.60;;
53271;SDS011;39160;48.580;7.756;2023-04-01T22:15:40;1.02;;;0.73;;
53271;SDS011;39160;48.580;7.756;2023-04-01T22:20:38;1.58;;;0.80;;
53271;SDS011;39160;48.580;7.756;2023-04-01T22:31:07;1.15;;;0.60;;
53271;SDS011;39160;48.580;7.756;2023-04-01T22:36:22;1.00;;;0.80;;
53271;SDS011;39160;48.580;7.756;2023-04-01T22:46:50;1.13;;;0.55;;
53271;SDS011;39160;48.580;7.756;2023-04-01T22:51:47;1.35;;;0.70;;
53271;SDS011;39160;48.580;7.756;2023-04-01T22:56:46;1.00;;;0.52;;
53271;SDS011;39160;48.580;7.756;2023-04-01T23:01:44;0.70;;;0.50;;
53271;SDS011;39160;48.580;7.756;2023-04-01T23:06:39;0.85;;;0.50;;
53271;SDS011;39160;48.580;7.756;2023-04-01T23:22:22;1.00;;;0.57;;
53271;SDS011;39160;48.580;7.756;2023-04-01T23:27:50;1.35;;;0.50;;
53271;SDS011;39160;48.580;7.756;2023-04-01T23:32:45;1.33;;;0.80;;
53271;SDS011;39160;48.580;7.756;2023-04-01T23:37:36;2.20;;;0.80;;
53271;SDS011;39160;48.580;7.756;2023-04-01T23:42:28;1.33;;;0.70;;
53271;SDS011;39160;48.580;7.756;2023-04-01T23:47:21;0.73;;;0.50;;
53271;SDS011;39160;48.580;7.756;2023-04-01T23:52:17;0.32;;;0.20;;
53271;SDS011;39160;48.580;7.756;2023-04-01T23:57:16;0.95;;;0.60;;
